createdAt,value
2024-03-29T00:00:31.797Z,248.60
2024-03-29T00:01:21.831Z,245.59
2024-03-29T00:02:11.975Z,246.53
2024-03-29T00:03:02.010Z,247.24
2024-03-29T00:03:52.030Z,246.88
2024-03-29T00:04:42.072Z,248.76
2024-03-29T00:05:32.108Z,249.78
2024-03-29T00:06:22.163Z,246.19
2024-03-29T00:07:12.202Z,250.00
2024-03-29T00:08:02.309Z,250.00
2024-03-29T00:08:52.327Z,247.00
2024-03-29T00:09:42.379Z,247.74
2024-03-29T00:10:32.448Z,248.93
2024-03-29T00:11:22.529Z,246.30
2024-03-29T00:12:12.536Z,246.01
2024-03-29T00:13:02.590Z,246.80
2024-03-29T00:13:52.636Z,246.13
2024-03-29T00:14:42.669Z,246.62
2024-03-29T00:15:32.750Z,247.32
2024-03-29T00:16:22.783Z,248.55
2024-03-29T00:17:12.813Z,249.30
2024-03-29T00:18:02.854Z,245.37
2024-03-29T00:18:52.955Z,249.23
2024-03-29T00:19:43.002Z,247.15
2024-03-29T00:20:33.033Z,248.82
2024-03-29T00:21:23.082Z,248.59
2024-03-29T00:22:13.124Z,249.56
2024-03-29T00:23:03.214Z,243.92
2024-03-29T00:23:53.258Z,247.22
2024-03-29T00:24:43.313Z,245.67
2024-03-29T00:25:33.367Z,248.00
2024-03-29T00:26:23.397Z,244.04
2024-03-29T00:27:13.424Z,244.69
2024-03-29T00:28:03.474Z,246.56
2024-03-29T00:28:53.538Z,244.25
2024-03-29T00:29:43.573Z,246.85
2024-03-29T00:30:33.646Z,246.57
2024-03-29T00:31:23.692Z,247.50
2024-03-29T00:32:13.743Z,249.08
2024-03-29T00:33:03.797Z,246.97
2024-03-29T00:33:53.863Z,246.70
2024-03-29T00:34:43.914Z,246.00
2024-03-29T00:35:33.969Z,246.14
2024-03-29T00:36:24.003Z,244.19
2024-03-29T00:37:14.091Z,244.41
2024-03-29T00:38:04.179Z,245.69
2024-03-29T00:38:54.244Z,246.28
2024-03-29T00:39:44.287Z,247.89
2024-03-29T00:40:34.329Z,244.77
2024-03-29T00:41:24.384Z,244.84
2024-03-29T00:42:15.604Z,242.07
2024-03-29T00:43:04.463Z,247.53
2024-03-29T00:43:54.576Z,247.03
2024-03-29T00:44:44.593Z,244.86
2024-03-29T00:45:34.678Z,241.68
2024-03-29T00:46:24.736Z,244.01
2024-03-29T00:47:14.775Z,244.41
2024-03-29T00:48:04.816Z,240.09
2024-03-29T00:48:54.864Z,244.47
2024-03-29T00:49:44.914Z,242.65
2024-03-29T00:50:34.946Z,243.43
2024-03-29T00:51:27.188Z,242.38
2024-03-29T00:52:15.086Z,242.45
2024-03-29T00:53:05.157Z,242.40
2024-03-29T00:53:55.246Z,242.65
2024-03-29T00:54:45.285Z,240.93
2024-03-29T00:55:35.362Z,244.19
2024-03-29T00:56:25.425Z,243.64
2024-03-29T00:57:15.470Z,243.95
2024-03-29T00:58:05.505Z,239.99
2024-03-29T00:58:55.552Z,240.77
2024-03-29T00:59:45.828Z,238.90
2024-03-29T01:00:35.906Z,241.13
2024-03-29T01:01:25.921Z,240.60
2024-03-29T01:02:15.953Z,240.14
2024-03-29T01:03:05.994Z,240.36
2024-03-29T01:03:56.042Z,240.12
2024-03-29T01:04:46.121Z,235.89
2024-03-29T01:05:36.126Z,239.04
2024-03-29T01:06:26.247Z,238.71
2024-03-29T01:07:16.298Z,237.53
2024-03-29T01:08:06.492Z,238.92
2024-03-29T01:08:56.386Z,235.71
2024-03-29T01:09:46.437Z,236.97
2024-03-29T01:10:36.474Z,238.17
2024-03-29T01:11:26.515Z,238.23
2024-03-29T01:12:16.556Z,237.08
2024-03-29T01:13:06.643Z,238.31
2024-03-29T01:13:56.711Z,239.16
2024-03-29T01:14:46.744Z,238.82
2024-03-29T01:15:36.773Z,237.62
2024-03-29T01:16:26.828Z,239.26
2024-03-29T01:17:16.847Z,241.13
2024-03-29T01:18:06.878Z,242.44
2024-03-29T01:18:56.971Z,240.44
2024-03-29T01:19:47.024Z,236.61
2024-03-29T01:20:37.082Z,241.51
2024-03-29T01:21:27.116Z,239.49
2024-03-29T01:22:17.192Z,242.01
2024-03-29T01:23:07.207Z,240.60
2024-03-29T01:23:57.273Z,239.96
2024-03-29T01:24:47.316Z,240.59
2024-03-29T01:25:37.375Z,240.75
2024-03-29T01:26:27.404Z,241.46
2024-03-29T01:27:17.483Z,242.11
2024-03-29T01:28:07.503Z,243.40
2024-03-29T01:28:57.626Z,244.73
2024-03-29T01:29:47.641Z,248.90
2024-03-29T01:30:37.695Z,246.50
2024-03-29T01:31:27.727Z,247.99
2024-03-29T01:32:18.060Z,248.18
2024-03-29T01:33:08.117Z,248.08
2024-03-29T01:33:58.196Z,248.72
2024-03-29T01:34:48.218Z,248.51
2024-03-29T01:35:38.265Z,249.23
2024-03-29T01:36:28.299Z,246.17
2024-03-29T01:37:18.377Z,249.51
2024-03-29T01:38:08.405Z,248.66
2024-03-29T01:38:58.470Z,247.53
2024-03-29T01:39:48.484Z,248.31
2024-03-29T01:40:38.533Z,245.85
2024-03-29T01:41:28.568Z,249.49
2024-03-29T01:42:18.614Z,248.75
2024-03-29T01:43:08.650Z,248.17
2024-03-29T01:43:58.751Z,249.00
2024-03-29T01:44:48.779Z,246.65
2024-03-29T01:45:38.842Z,247.88
2024-03-29T01:46:28.882Z,249.35
2024-03-29T01:47:18.936Z,249.32
2024-03-29T01:48:08.969Z,248.45
2024-03-29T01:48:59.062Z,247.14
2024-03-29T01:49:49.099Z,248.79
2024-03-29T01:50:39.145Z,249.36
2024-03-29T01:51:29.182Z,248.11
2024-03-29T01:52:19.256Z,249.40
2024-03-29T01:53:09.286Z,248.87
2024-03-29T01:53:59.356Z,247.73
2024-03-29T01:54:49.393Z,246.92
2024-03-29T01:55:39.440Z,247.68
2024-03-29T01:56:29.470Z,247.21
2024-03-29T01:57:19.548Z,246.35
2024-03-29T01:58:09.587Z,249.24
2024-03-29T01:58:59.709Z,247.95
2024-03-29T01:59:49.735Z,247.63
2024-03-29T02:00:39.793Z,247.53
2024-03-29T02:01:29.838Z,245.47
2024-03-29T02:02:19.887Z,245.46
2024-03-29T02:03:09.929Z,245.65
2024-03-29T02:04:00.046Z,245.28
2024-03-29T02:04:50.075Z,247.79
2024-03-29T02:05:40.116Z,244.14
2024-03-29T02:06:30.144Z,247.39
2024-03-29T02:07:20.188Z,246.54
2024-03-29T02:08:10.223Z,244.50
2024-03-29T02:09:00.297Z,246.53
2024-03-29T02:09:50.322Z,247.78
2024-03-29T02:10:40.380Z,247.47
2024-03-29T02:11:30.412Z,246.33
2024-03-29T02:12:20.486Z,247.30
2024-03-29T02:13:10.526Z,247.68
2024-03-29T02:14:00.614Z,247.29
2024-03-29T02:14:50.643Z,247.95
2024-03-29T02:15:40.689Z,250.00
2024-03-29T02:16:30.743Z,248.09
2024-03-29T02:17:20.804Z,247.99
2024-03-29T02:18:10.855Z,247.89
2024-03-29T02:19:00.990Z,247.74
2024-03-29T02:19:50.979Z,247.21
2024-03-29T02:20:41.071Z,246.29
2024-03-29T02:21:31.094Z,248.28
2024-03-29T02:22:21.166Z,247.29
2024-03-29T02:23:11.197Z,246.31
2024-03-29T02:24:01.277Z,245.45
2024-03-29T02:24:51.310Z,246.78
2024-03-29T02:25:41.398Z,247.09
2024-03-29T02:26:32.341Z,244.85
2024-03-29T02:27:21.520Z,245.41
2024-03-29T02:28:11.560Z,243.53
2024-03-29T02:29:01.645Z,242.38
2024-03-29T02:29:51.673Z,239.84
2024-03-29T02:30:41.725Z,243.27
2024-03-29T02:31:31.758Z,240.61
2024-03-29T02:32:21.905Z,243.32
2024-03-29T02:33:11.908Z,244.38
2024-03-29T02:34:01.990Z,242.01
2024-03-29T02:34:52.063Z,244.79
2024-03-29T02:35:42.067Z,245.62
2024-03-29T02:36:32.116Z,244.64
2024-03-29T02:37:22.158Z,242.70
2024-03-29T02:38:12.185Z,243.84
2024-03-29T02:39:02.302Z,245.09
2024-03-29T02:39:52.338Z,244.92
2024-03-29T02:40:42.425Z,245.02
2024-03-29T02:41:32.455Z,246.32
2024-03-29T02:42:22.539Z,247.17
2024-03-29T02:43:12.609Z,244.28
2024-03-29T02:44:03.778Z,246.25
2024-03-29T02:44:52.725Z,248.11
2024-03-29T02:45:42.771Z,247.30
2024-03-29T02:46:32.823Z,246.23
2024-03-29T02:47:22.859Z,246.66
2024-03-29T02:48:12.903Z,247.42
2024-03-29T02:49:02.928Z,244.58
2024-03-29T02:49:52.977Z,245.81
2024-03-29T02:50:43.019Z,245.00
2024-03-29T02:51:33.089Z,247.42
2024-03-29T02:52:23.115Z,245.16
2024-03-29T02:53:13.147Z,243.96
2024-03-29T02:54:03.237Z,244.05
2024-03-29T02:54:53.291Z,245.36
2024-03-29T02:55:43.332Z,244.03
2024-03-29T02:56:33.362Z,245.28
2024-03-29T02:57:23.415Z,243.85
2024-03-29T02:58:13.452Z,245.00
2024-03-29T02:59:03.500Z,247.48
2024-03-29T02:59:53.537Z,247.99
2024-03-29T03:00:43.637Z,248.09
2024-03-29T03:01:33.676Z,249.46
2024-03-29T03:02:23.737Z,247.67
2024-03-29T03:03:13.778Z,244.82
2024-03-29T03:04:03.838Z,247.27
2024-03-29T03:04:53.884Z,247.70
2024-03-29T03:05:43.939Z,247.74
2024-03-29T03:06:33.978Z,247.19
2024-03-29T03:07:24.004Z,247.84
2024-03-29T03:08:14.038Z,248.24
2024-03-29T03:09:04.090Z,248.39
2024-03-29T03:09:54.131Z,248.61
2024-03-29T03:10:44.171Z,249.07
2024-03-29T03:11:34.207Z,246.19
2024-03-29T03:12:24.275Z,247.67
2024-03-29T03:13:14.326Z,248.76
2024-03-29T03:14:04.374Z,248.34
2024-03-29T03:14:54.399Z,250.00
2024-03-29T03:15:44.446Z,247.31
2024-03-29T03:16:34.468Z,247.87
2024-03-29T03:17:24.528Z,247.59
2024-03-29T03:18:14.550Z,250.00
2024-03-29T03:19:04.586Z,250.00
2024-03-29T03:19:54.677Z,248.41
2024-03-29T03:20:44.740Z,248.84
2024-03-29T03:21:34.812Z,249.14
2024-03-29T03:22:24.845Z,246.38
2024-03-29T03:23:14.873Z,248.23
2024-03-29T03:24:04.936Z,249.21
2024-03-29T03:24:54.999Z,249.59
2024-03-29T03:25:45.023Z,250.00
2024-03-29T03:26:38.208Z,248.63
2024-03-29T03:27:25.164Z,248.74
2024-03-29T03:28:15.277Z,249.00
2024-03-29T03:29:05.366Z,249.95
2024-03-29T03:29:55.450Z,250.63
2024-03-29T03:30:45.704Z,253.09
2024-03-29T03:31:35.742Z,254.94
2024-03-29T03:32:25.795Z,248.30
2024-03-29T03:33:15.833Z,248.97
2024-03-29T03:34:05.879Z,247.73
2024-03-29T03:34:55.937Z,248.39
2024-03-29T03:35:45.987Z,248.27
2024-03-29T03:36:36.020Z,246.08
2024-03-29T03:37:26.090Z,245.62
2024-03-29T03:38:16.123Z,246.98
2024-03-29T03:39:06.176Z,244.06
2024-03-29T03:39:56.221Z,245.42
2024-03-29T03:40:46.250Z,245.60
2024-03-29T03:41:36.294Z,246.09
2024-03-29T03:42:26.357Z,246.56
2024-03-29T03:43:16.416Z,247.73
2024-03-29T03:44:06.482Z,247.03
2024-03-29T03:44:56.517Z,245.16
2024-03-29T03:45:46.561Z,246.23
2024-03-29T03:46:36.591Z,246.23
2024-03-29T03:47:26.645Z,246.31
2024-03-29T03:48:16.673Z,245.93
2024-03-29T03:49:06.788Z,246.08
2024-03-29T03:49:56.799Z,245.17
2024-03-29T03:50:46.836Z,247.47
2024-03-29T03:51:36.929Z,244.81
2024-03-29T03:52:26.977Z,245.28
2024-03-29T03:53:17.006Z,245.70
2024-03-29T03:54:07.085Z,244.28
2024-03-29T03:54:57.136Z,244.70
2024-03-29T03:55:47.176Z,245.40
2024-03-29T03:56:37.209Z,246.17
2024-03-29T03:57:27.293Z,247.09
2024-03-29T03:58:17.324Z,245.67
2024-03-29T03:59:07.432Z,245.74
2024-03-29T03:59:57.484Z,245.85
2024-03-29T04:00:47.551Z,246.37
2024-03-29T04:01:37.566Z,244.79
2024-03-29T04:02:27.652Z,246.08
2024-03-29T04:03:17.687Z,244.22
2024-03-29T04:04:07.726Z,245.49
2024-03-29T04:04:57.790Z,243.55
2024-03-29T04:05:47.836Z,244.54
2024-03-29T04:06:37.873Z,244.94
2024-03-29T04:07:27.959Z,245.06
2024-03-29T04:08:18.017Z,245.22
2024-03-29T04:09:08.096Z,245.75
2024-03-29T04:09:58.172Z,245.97
2024-03-29T04:10:48.210Z,245.90
2024-03-29T04:11:38.240Z,246.03
2024-03-29T04:12:28.293Z,247.17
2024-03-29T04:13:18.330Z,246.03
2024-03-29T04:14:08.680Z,246.59
2024-03-29T04:14:58.708Z,245.64
2024-03-29T04:15:48.755Z,244.95
2024-03-29T04:16:38.800Z,244.88
2024-03-29T04:17:28.910Z,243.80
2024-03-29T04:18:18.909Z,244.09
2024-03-29T04:19:08.963Z,246.03
2024-03-29T04:19:59.028Z,244.81
2024-03-29T04:20:49.046Z,244.96
2024-03-29T04:21:39.095Z,245.14
2024-03-29T04:22:29.124Z,245.23
2024-03-29T04:23:19.204Z,245.85
2024-03-29T04:24:09.267Z,247.23
2024-03-29T04:24:59.337Z,247.31
2024-03-29T04:25:49.341Z,248.17
2024-03-29T04:26:39.410Z,244.33
2024-03-29T04:27:29.455Z,248.30
2024-03-29T04:28:19.524Z,245.73
2024-03-29T04:29:09.638Z,245.89
2024-03-29T04:29:59.701Z,246.18
2024-03-29T04:30:49.728Z,246.31
2024-03-29T04:31:39.760Z,244.07
2024-03-29T04:32:29.839Z,247.29
2024-03-29T04:33:20.031Z,246.53
2024-03-29T04:34:10.074Z,245.18
2024-03-29T04:35:00.188Z,245.29
2024-03-29T04:35:50.194Z,245.43
2024-03-29T04:36:40.269Z,246.11
2024-03-29T04:37:30.345Z,246.25
2024-03-29T04:38:20.375Z,246.78
2024-03-29T04:39:10.462Z,249.29
2024-03-29T04:40:00.505Z,245.66
2024-03-29T04:40:50.534Z,247.34
2024-03-29T04:41:40.569Z,246.35
2024-03-29T04:42:30.620Z,247.70
2024-03-29T04:43:20.660Z,248.77
2024-03-29T04:44:10.730Z,248.75
2024-03-29T04:45:00.775Z,247.94
2024-03-29T04:45:50.879Z,246.60
2024-03-29T04:46:40.937Z,248.49
2024-03-29T04:47:30.961Z,247.54
2024-03-29T04:48:21.006Z,246.87
2024-03-29T04:49:11.088Z,249.75
2024-03-29T04:50:01.121Z,247.21
2024-03-29T04:50:51.229Z,248.58
2024-03-29T04:51:41.213Z,248.53
2024-03-29T04:52:31.247Z,246.89
2024-03-29T04:53:21.291Z,248.23
2024-03-29T04:54:11.328Z,247.16
2024-03-29T04:55:01.397Z,248.22
2024-03-29T04:55:51.425Z,249.21
2024-03-29T04:56:41.455Z,250.00
2024-03-29T04:57:31.511Z,248.69
2024-03-29T04:58:21.542Z,246.89
2024-03-29T04:59:11.664Z,248.44
2024-03-29T05:00:01.694Z,249.34
2024-03-29T05:00:51.744Z,248.05
2024-03-29T05:01:41.786Z,246.37
2024-03-29T05:02:31.862Z,248.64
2024-03-29T05:03:21.904Z,247.31
2024-03-29T05:04:11.955Z,243.97
2024-03-29T05:05:02.014Z,248.48
2024-03-29T05:05:52.059Z,246.51
2024-03-29T05:06:42.103Z,247.96
2024-03-29T05:07:32.146Z,247.83
2024-03-29T05:08:22.188Z,247.84
2024-03-29T05:09:12.247Z,248.36
2024-03-29T05:10:02.304Z,248.70
2024-03-29T05:10:52.374Z,249.94
2024-03-29T05:11:42.387Z,247.11
2024-03-29T05:12:32.465Z,248.22
2024-03-29T05:13:22.491Z,249.62
2024-03-29T05:14:12.548Z,250.00
2024-03-29T05:15:02.609Z,246.81
2024-03-29T05:15:52.642Z,248.40
2024-03-29T05:16:42.689Z,246.40
2024-03-29T05:17:32.790Z,245.11
2024-03-29T05:18:22.800Z,243.98
2024-03-29T05:19:12.877Z,243.88
2024-03-29T05:20:02.951Z,243.51
2024-03-29T05:20:52.987Z,243.55
2024-03-29T05:21:43.022Z,242.11
2024-03-29T05:22:33.074Z,242.01
2024-03-29T05:23:23.105Z,244.50
2024-03-29T05:24:13.185Z,243.05
2024-03-29T05:25:03.278Z,243.19
2024-03-29T05:25:53.331Z,243.40
2024-03-29T05:26:43.367Z,244.08
2024-03-29T05:27:35.266Z,243.57
2024-03-29T05:28:23.474Z,243.18
2024-03-29T05:29:13.558Z,243.55
2024-03-29T05:30:03.627Z,243.78
2024-03-29T05:30:53.654Z,243.34
2024-03-29T05:31:43.722Z,244.58
2024-03-29T05:32:33.793Z,245.06
2024-03-29T05:33:23.830Z,246.89
2024-03-29T05:34:14.079Z,244.45
2024-03-29T05:35:04.158Z,243.46
2024-03-29T05:35:54.180Z,243.43
2024-03-29T05:36:44.222Z,243.53
2024-03-29T05:37:34.297Z,246.67
2024-03-29T05:38:24.326Z,243.32
2024-03-29T05:39:14.385Z,246.21
2024-03-29T05:40:04.433Z,244.30
2024-03-29T05:40:54.481Z,245.96
2024-03-29T05:41:44.520Z,244.53
2024-03-29T05:42:34.573Z,243.59
2024-03-29T05:43:24.629Z,245.01
2024-03-29T05:44:14.715Z,245.31
2024-03-29T05:45:04.764Z,243.41
2024-03-29T05:45:54.795Z,245.12
2024-03-29T05:46:44.830Z,244.24
2024-03-29T05:47:34.911Z,245.48
2024-03-29T05:48:24.983Z,242.73
2024-03-29T05:49:15.021Z,243.26
2024-03-29T05:50:05.085Z,244.74
2024-03-29T05:50:55.129Z,244.09
2024-03-29T05:51:45.172Z,243.22
2024-03-29T05:52:35.241Z,241.18
2024-03-29T05:53:25.270Z,240.42
2024-03-29T05:54:15.412Z,240.10
2024-03-29T05:55:05.398Z,239.91
2024-03-29T05:55:55.429Z,239.24
2024-03-29T05:56:45.468Z,238.63
2024-03-29T05:57:35.576Z,239.64
2024-03-29T05:58:25.575Z,237.85
2024-03-29T05:59:15.603Z,240.49
2024-03-29T06:00:05.673Z,241.72
2024-03-29T06:00:55.750Z,239.27
2024-03-29T06:01:45.788Z,240.10
2024-03-29T06:02:35.838Z,242.09
2024-03-29T06:03:25.880Z,239.09
2024-03-29T06:04:15.925Z,239.45
2024-03-29T06:05:05.999Z,240.57
2024-03-29T06:05:56.024Z,240.06
2024-03-29T06:06:46.073Z,241.37
2024-03-29T06:07:36.229Z,240.74
2024-03-29T06:08:26.275Z,242.37
2024-03-29T06:09:16.342Z,239.98
2024-03-29T06:10:06.437Z,242.31
2024-03-29T06:10:56.544Z,241.84
2024-03-29T06:11:46.564Z,240.35
2024-03-29T06:12:36.614Z,242.87
2024-03-29T06:13:26.575Z,242.87
2024-03-29T06:14:16.773Z,242.72
2024-03-29T06:15:06.830Z,243.17
2024-03-29T06:15:56.878Z,241.51
2024-03-29T06:16:46.887Z,244.00
2024-03-29T06:17:37.197Z,241.63
2024-03-29T06:18:27.014Z,245.13
2024-03-29T06:19:17.034Z,243.86
2024-03-29T06:20:07.172Z,242.41
2024-03-29T06:20:57.294Z,245.17
2024-03-29T06:21:47.261Z,243.33
2024-03-29T06:22:37.334Z,243.92
2024-03-29T06:23:27.388Z,242.79
2024-03-29T06:24:17.436Z,244.03
2024-03-29T06:25:07.562Z,244.72
2024-03-29T06:25:57.557Z,239.94
2024-03-29T06:26:47.539Z,241.27
2024-03-29T06:27:37.715Z,241.71
2024-03-29T06:28:27.727Z,242.81
2024-03-29T06:29:18.077Z,240.18
2024-03-29T06:30:07.933Z,239.80
2024-03-29T06:30:57.924Z,240.41
2024-03-29T06:31:47.933Z,239.06
2024-03-29T06:32:37.980Z,237.18
2024-03-29T06:33:28.024Z,238.56
2024-03-29T06:34:18.194Z,238.47
2024-03-29T06:35:08.284Z,238.46
2024-03-29T06:35:58.338Z,238.37
2024-03-29T06:36:48.394Z,236.82
2024-03-29T06:37:38.528Z,237.38
2024-03-29T06:38:28.473Z,236.40
2024-03-29T06:39:18.568Z,234.60
2024-03-29T06:40:08.660Z,237.22
2024-03-29T06:40:58.718Z,239.07
2024-03-29T06:41:48.756Z,237.73
2024-03-29T06:42:38.866Z,236.56
2024-03-29T06:43:28.822Z,238.06
2024-03-29T06:44:18.916Z,236.42
2024-03-29T06:45:08.942Z,238.72
2024-03-29T06:45:59.071Z,237.11
2024-03-29T06:46:50.839Z,234.94
2024-03-29T06:47:39.113Z,235.02
2024-03-29T06:48:29.087Z,234.16
2024-03-29T06:49:19.154Z,234.24
2024-03-29T06:50:09.292Z,234.59
2024-03-29T06:50:59.312Z,233.83
2024-03-29T06:51:49.386Z,232.07
2024-03-29T06:52:39.452Z,231.75
2024-03-29T06:53:29.467Z,232.42
2024-03-29T06:54:19.605Z,231.58
2024-03-29T06:55:09.574Z,231.76
2024-03-29T06:55:59.641Z,231.78
2024-03-29T06:56:49.670Z,233.57
2024-03-29T06:57:39.807Z,234.15
2024-03-29T06:58:29.830Z,234.39
2024-03-29T06:59:19.944Z,235.19
2024-03-29T07:00:09.954Z,234.07
2024-03-29T07:01:00.098Z,233.16
2024-03-29T07:01:50.050Z,236.40
2024-03-29T07:02:40.141Z,236.81
2024-03-29T07:03:30.137Z,236.00
2024-03-29T07:04:20.285Z,236.08
2024-03-29T07:05:10.265Z,236.36
2024-03-29T07:06:00.336Z,236.41
2024-03-29T07:06:50.360Z,235.53
2024-03-29T07:07:40.482Z,236.50
2024-03-29T07:08:30.557Z,235.64
2024-03-29T07:09:20.638Z,235.91
2024-03-29T07:10:10.649Z,239.76
2024-03-29T07:11:00.783Z,238.43
2024-03-29T07:11:50.765Z,237.32
2024-03-29T07:12:40.828Z,235.95
2024-03-29T07:13:30.869Z,236.86
2024-03-29T07:14:20.972Z,237.64
2024-03-29T07:15:11.044Z,238.33
2024-03-29T07:16:01.153Z,240.46
2024-03-29T07:16:51.186Z,237.33
2024-03-29T07:17:41.286Z,238.17
2024-03-29T07:18:31.268Z,237.41
2024-03-29T07:19:21.421Z,238.70
2024-03-29T07:20:11.390Z,241.91
2024-03-29T07:21:01.480Z,242.85
2024-03-29T07:21:51.548Z,240.51
2024-03-29T07:22:41.609Z,242.46
2024-03-29T07:23:31.622Z,239.44
2024-03-29T07:24:21.760Z,240.95
2024-03-29T07:25:11.743Z,240.13
2024-03-29T07:26:01.809Z,241.48
2024-03-29T07:26:51.838Z,239.02
2024-03-29T07:27:41.913Z,239.13
2024-03-29T07:28:31.945Z,239.31
2024-03-29T07:29:22.003Z,239.81
2024-03-29T07:30:12.056Z,240.83
2024-03-29T07:31:02.150Z,240.66
2024-03-29T07:31:52.172Z,240.58
2024-03-29T07:32:42.304Z,237.71
2024-03-29T07:33:32.283Z,238.49
2024-03-29T07:34:22.372Z,239.62
2024-03-29T07:35:12.379Z,239.68
2024-03-29T07:36:02.495Z,236.18
2024-03-29T07:36:52.450Z,239.24
2024-03-29T07:37:42.542Z,236.18
2024-03-29T07:38:32.632Z,240.64
2024-03-29T07:39:22.702Z,242.20
2024-03-29T07:40:12.778Z,240.31
2024-03-29T07:41:02.834Z,238.57
2024-03-29T07:41:52.840Z,237.12
2024-03-29T07:42:42.987Z,237.13
2024-03-29T07:43:32.947Z,237.79
2024-03-29T07:44:23.033Z,242.14
2024-03-29T07:45:13.188Z,238.97
2024-03-29T07:46:03.281Z,235.68
2024-03-29T07:46:53.283Z,236.84
2024-03-29T07:47:43.435Z,239.69
2024-03-29T07:48:33.410Z,238.68
2024-03-29T07:49:23.494Z,235.80
2024-03-29T07:50:13.497Z,238.56
2024-03-29T07:51:03.633Z,239.66
2024-03-29T07:51:53.716Z,237.12
2024-03-29T07:52:43.776Z,236.49
2024-03-29T07:53:33.817Z,237.13
2024-03-29T07:54:23.923Z,235.74
2024-03-29T07:55:13.943Z,240.18
2024-03-29T07:56:04.080Z,239.21
2024-03-29T07:56:54.065Z,239.33
2024-03-29T07:57:44.218Z,239.36
2024-03-29T07:58:34.177Z,239.48
2024-03-29T07:59:24.269Z,239.74
2024-03-29T08:00:14.284Z,239.77
2024-03-29T08:01:04.423Z,240.30
2024-03-29T08:01:54.374Z,241.57
2024-03-29T08:02:44.566Z,240.22
2024-03-29T08:03:34.556Z,239.34
2024-03-29T08:04:24.714Z,243.69
2024-03-29T08:05:14.712Z,241.37
2024-03-29T08:06:04.761Z,239.78
2024-03-29T08:06:54.806Z,240.93
2024-03-29T08:07:44.913Z,240.51
2024-03-29T08:08:34.911Z,244.02
2024-03-29T08:09:25.058Z,242.87
2024-03-29T08:10:15.073Z,243.04
2024-03-29T08:11:05.244Z,240.18
2024-03-29T08:11:55.167Z,245.27
2024-03-29T08:12:45.251Z,241.22
2024-03-29T08:13:35.255Z,242.63
2024-03-29T08:14:25.401Z,239.73
2024-03-29T08:15:15.389Z,243.08
2024-03-29T08:16:05.546Z,241.83
2024-03-29T08:16:55.507Z,245.02
2024-03-29T08:17:45.599Z,246.66
2024-03-29T08:18:35.607Z,242.33
2024-03-29T08:19:25.747Z,246.91
2024-03-29T08:20:15.747Z,244.14
2024-03-29T08:21:05.809Z,246.78
2024-03-29T08:21:55.823Z,245.75
2024-03-29T08:22:45.941Z,244.33
2024-03-29T08:23:35.942Z,246.03
2024-03-29T08:24:26.087Z,241.96
2024-03-29T08:25:16.076Z,249.22
2024-03-29T08:26:06.133Z,246.94
2024-03-29T08:26:56.180Z,246.40
2024-03-29T08:27:46.283Z,244.34
2024-03-29T08:28:36.322Z,245.72
2024-03-29T08:29:26.427Z,246.07
2024-03-29T08:30:16.448Z,246.17
2024-03-29T08:31:06.576Z,246.38
2024-03-29T08:31:56.514Z,246.51
2024-03-29T08:32:46.625Z,246.48
2024-03-29T08:33:39.387Z,247.25
2024-03-29T08:34:26.775Z,248.57
2024-03-29T08:35:16.779Z,249.39
2024-03-29T08:36:06.830Z,249.00
2024-03-29T08:36:56.870Z,248.71
2024-03-29T08:37:46.904Z,247.36
2024-03-29T08:38:36.972Z,244.67
2024-03-29T08:39:27.026Z,246.77
2024-03-29T08:40:17.194Z,246.79
2024-03-29T08:41:07.305Z,247.02
2024-03-29T08:41:57.308Z,246.29
2024-03-29T08:42:47.427Z,242.80
2024-03-29T08:43:37.777Z,245.85
2024-03-29T08:44:27.587Z,241.67
2024-03-29T08:45:17.591Z,243.26
2024-03-29T08:46:07.638Z,245.35
2024-03-29T08:46:57.730Z,248.28
2024-03-29T08:47:47.859Z,246.93
2024-03-29T08:48:37.812Z,244.24
2024-03-29T08:49:27.903Z,244.76
2024-03-29T08:50:17.963Z,245.52
2024-03-29T08:51:08.058Z,244.77
2024-03-29T08:51:58.098Z,246.12
2024-03-29T08:52:48.224Z,244.60
2024-03-29T08:53:38.185Z,242.88
2024-03-29T08:54:28.347Z,247.30
2024-03-29T08:55:18.308Z,246.95
2024-03-29T08:56:08.449Z,246.68
2024-03-29T08:56:58.395Z,247.45
2024-03-29T08:57:48.448Z,246.48
2024-03-29T08:58:38.468Z,248.55
2024-03-29T08:59:28.606Z,246.83
2024-03-29T09:00:18.688Z,248.55
2024-03-29T09:01:08.744Z,246.58
2024-03-29T09:01:58.802Z,249.35
2024-03-29T09:02:48.890Z,249.49
2024-03-29T09:03:38.868Z,249.72
2024-03-29T09:04:28.934Z,249.81
2024-03-29T09:05:18.974Z,249.91
2024-03-29T09:06:09.087Z,250.00
2024-03-29T09:06:59.130Z,247.67
2024-03-29T09:07:51.845Z,249.43
2024-03-29T09:08:39.233Z,249.52
2024-03-29T09:09:29.381Z,249.51
2024-03-29T09:10:19.331Z,249.57
2024-03-29T09:11:09.429Z,249.99
2024-03-29T09:11:59.471Z,248.19
2024-03-29T09:12:49.575Z,248.83
2024-03-29T09:13:39.574Z,248.19
2024-03-29T09:14:29.831Z,245.84
2024-03-29T09:15:19.831Z,246.25
2024-03-29T09:16:09.983Z,244.54
2024-03-29T09:16:59.950Z,245.81
2024-03-29T09:17:50.020Z,247.07
2024-03-29T09:18:40.081Z,247.72
2024-03-29T09:19:30.174Z,247.95
2024-03-29T09:20:20.228Z,244.57
2024-03-29T09:21:10.319Z,248.53
2024-03-29T09:22:00.330Z,247.72
2024-03-29T09:22:50.469Z,249.11
2024-03-29T09:23:40.424Z,246.80
2024-03-29T09:24:30.556Z,247.36
2024-03-29T09:25:20.558Z,245.44
2024-03-29T09:26:10.663Z,245.52
2024-03-29T09:27:00.715Z,246.13
2024-03-29T09:27:50.811Z,247.53
2024-03-29T09:28:40.796Z,249.42
2024-03-29T09:29:30.959Z,249.21
2024-03-29T09:30:21.113Z,250.00
2024-03-29T09:31:11.205Z,247.01
2024-03-29T09:32:01.227Z,247.24
2024-03-29T09:32:51.378Z,246.87
2024-03-29T09:33:41.317Z,248.68
2024-03-29T09:34:31.402Z,247.24
2024-03-29T09:35:21.471Z,247.60
2024-03-29T09:36:11.551Z,248.68
2024-03-29T09:37:01.622Z,246.33
2024-03-29T09:37:51.703Z,247.51
2024-03-29T09:38:41.731Z,247.06
2024-03-29T09:39:31.853Z,246.28
2024-03-29T09:40:21.848Z,245.04
2024-03-29T09:41:11.897Z,245.57
2024-03-29T09:42:01.945Z,245.67
2024-03-29T09:42:52.079Z,246.44
2024-03-29T09:43:42.117Z,247.67
2024-03-29T09:44:32.297Z,247.72
2024-03-29T09:45:22.270Z,247.84
2024-03-29T09:46:12.342Z,246.88
2024-03-29T09:47:02.369Z,247.99
2024-03-29T09:47:52.484Z,249.02
2024-03-29T09:48:42.519Z,249.15
2024-03-29T09:49:34.340Z,250.11
2024-03-29T09:50:22.661Z,250.14
2024-03-29T09:51:12.683Z,250.52
2024-03-29T09:52:02.709Z,250.75
2024-03-29T09:52:52.867Z,251.05
2024-03-29T09:53:42.945Z,253.18
2024-03-29T09:54:33.086Z,256.28
2024-03-29T09:55:23.027Z,249.36
2024-03-29T09:56:13.154Z,249.51
2024-03-29T09:57:03.159Z,249.81
2024-03-29T09:57:53.315Z,250.30
2024-03-29T09:58:43.268Z,250.09
2024-03-29T09:59:33.432Z,250.29
2024-03-29T10:00:23.383Z,252.87
2024-03-29T10:01:16.454Z,247.64
2024-03-29T10:02:03.481Z,247.74
2024-03-29T10:02:53.579Z,247.81
2024-03-29T10:03:43.575Z,248.33
2024-03-29T10:04:33.686Z,248.84
2024-03-29T10:05:23.799Z,249.22
2024-03-29T10:06:13.921Z,250.49
2024-03-29T10:07:03.875Z,250.00
2024-03-29T10:07:54.005Z,250.00
2024-03-29T10:08:43.971Z,248.84
2024-03-29T10:09:34.021Z,250.00
2024-03-29T10:10:24.056Z,248.34
2024-03-29T10:11:14.173Z,245.87
2024-03-29T10:12:04.318Z,247.94
2024-03-29T10:12:54.447Z,247.93
2024-03-29T10:13:44.402Z,245.84
2024-03-29T10:14:34.578Z,248.23
2024-03-29T10:15:24.530Z,248.93
2024-03-29T10:16:14.608Z,250.00
2024-03-29T10:17:04.963Z,248.93
2024-03-29T10:17:54.788Z,249.17
2024-03-29T10:18:44.878Z,246.79
2024-03-29T10:19:35.008Z,247.79
2024-03-29T10:20:24.982Z,246.17
2024-03-29T10:21:15.057Z,247.35
2024-03-29T10:22:05.058Z,246.75
2024-03-29T10:22:55.233Z,247.34
2024-03-29T10:23:45.794Z,248.91
2024-03-29T10:24:35.248Z,248.97